Time;durP1;ratioP1;P1;durP2;ratioP2;P2;SDS_P1;SDS_P2;PMS_P1;PMS_P2;Temp;Humidity;BMP_temperature;BMP_pressure;BME280_temperature;BME280_humidity;BME280_pressure;Samples;Min_cycle;Max_cycle;Signal;HPM_P1;HPM_P2
2022/11/10 00:00:24;;;;;;;23.33;4.80;;;;;;;;;;5261685;27;20343;-70
2022/11/10 00:02:49;;;;;;;;;;;;;;;;;;5262106;27;20040;-70
2022/11/10 00:05:15;;;;;;;25.30;5.65;;;;;;;;;;5260049;27;19976;-69
2022/11/10 00:07:40;;;;;;;;;;;;;;;;;;5261941;27;20140;-70
2022/11/10 00:10:05;;;;;;;25.30;6.35;;;;;;;;;;5261820;27;20321;-69
2022/11/10 00:12:31;;;;;;;24.30;5.37;;;;;;;;;;5261803;27;20047;-70
2022/11/10 00:17:41;;;;;;;24.95;6.05;;;;;;;;;;5261801;27;19931;-70
2022/11/10 00:20:06;;;;;;;;;;;;;;;;;;5262753;27;20002;-70
2022/11/10 00:22:34;;;;;;;25.45;5.62;;;;;;;;;;5262118;27;19936;-70
2022/11/10 00:25:00;;;;;;;21.98;5.43;;;;;;;;;;5261865;27;20076;-70
2022/11/10 00:27:25;;;;;;;;;;;;;;;;;;5260258;27;20002;-70
2022/11/10 00:29:50;;;;;;;29.27;5.75;;;;;;;;;;5259203;27;19971;-70
2022/11/10 00:32:15;;;;;;;27.27;6.05;;;;;;;;;;5261761;27;20002;-70
2022/11/10 00:34:40;;;;;;;22.98;5.40;;;;;;;;;;5261874;27;20001;-70
2022/11/10 00:37:05;;;;;;;;;;;;;;;;;;5262144;27;20047;-70
2022/11/10 00:39:30;;;;;;;29.37;6.35;;;;;;;;;;5260555;27;19940;-69
2022/11/10 00:41:55;;;;;;;25.58;5.55;;;;;;;;;;5260317;27;20002;-70
2022/11/10 00:44:21;;;;;;;;;;;;;;;;;;5258534;27;20090;-69
2022/11/10 00:46:46;;;;;;;30.90;6.05;;;;;;;;;;5262093;27;19929;-71
2022/11/10 00:49:11;;;;;;;29.08;5.82;;;;;;;;;;5263077;27;20065;-71
2022/11/10 00:51:36;;;;;;;;;;;;;;;;;;5263069;27;20094;-70
2022/11/10 00:54:01;;;;;;;31.48;5.32;;;;;;;;;;5263487;27;19929;-70
2022/11/10 00:56:26;;;;;;;32.15;6.12;;;;;;;;;;5263054;27;20409;-69
2022/11/10 00:58:52;;;;;;;17.42;6.22;;;;;;;;;;5263290;27;20017;-70
2022/11/10 01:01:17;;;;;;;;;;;;;;;;;;5261377;27;20345;-70
2022/11/10 01:03:42;;;;;;;29.87;6.22;;;;;;;;;;5263157;27;19928;-69
2022/11/10 01:06:07;;;;;;;;;;;;;;;;;;5263577;27;20109;-70
2022/11/10 01:08:32;;;;;;;31.98;5.97;;;;;;;;;;5260637;27;20298;-70
2022/11/10 01:11:09;;;;;;;31.05;5.95;;;;;;;;;;5263037;27;20001;-70
2022/11/10 01:13:34;;;;;;;;;;;;;;;;;;5261605;27;19994;-71
2022/11/10 01:16:02;;;;;;;25.52;4.75;;;;;;;;;;5260550;27;19953;-70
2022/11/10 01:18:28;;;;;;;25.42;6.03;;;;;;;;;;5261955;27;20012;-70
2022/11/10 01:20:53;;;;;;;;;;;;;;;;;;5263843;27;19998;-70
2022/11/10 01:23:18;;;;;;;22.87;5.43;;;;;;;;;;5260603;27;19964;-70
2022/11/10 01:25:43;;;;;;;;;;;;;;;;;;5263699;27;20102;-70
2022/11/10 01:28:08;;;;;;;27.27;5.65;;;;;;;;;;5263162;27;19933;-70
2022/11/10 01:30:33;;;;;;;22.92;5.15;;;;;;;;;;5263219;27;20025;-70
2022/11/10 01:32:58;;;;;;;;;;;;;;;;;;5263131;27;20044;-70
2022/11/10 01:35:24;;;;;;;28.40;6.28;;;;;;;;;;5260380;27;19974;-71
2022/11/10 01:37:52;;;;;;;22.50;4.95;;;;;;;;;;5264026;27;20013;-70
2022/11/10 01:40:17;;;;;;;26.55;5.60;;;;;;;;;;5284014;27;20411;-69
2022/11/10 01:42:42;;;;;;;;;;;;;;;;;;5281997;27;20009;-71
2022/11/10 01:45:23;;;;;;;36.13;5.82;;;;;;;;;;5282192;27;19982;-71
2022/11/10 01:48:00;;;;;;;24.12;7.07;;;;;;;;;;5282147;27;20001;-70
2022/11/10 01:50:27;;;;;;;30.55;6.68;;;;;;;;;;5262790;27;20004;-69
2022/11/10 01:52:54;;;;;;;27.90;4.75;;;;;;;;;;5263857;27;20387;-69
2022/11/10 01:55:20;;;;;;;29.42;5.60;;;;;;;;;;5282746;27;20012;-69
2022/11/10 01:57:45;;;;;;;;;;;;;;;;;;5282427;27;20343;-70
2022/11/10 02:00:10;;;;;;;26.05;5.90;;;;;;;;;;5282343;27;19933;-70
2022/11/10 02:02:42;;;;;;;27.10;4.82;;;;;;;;;;5283544;27;20048;-70
2022/11/10 02:05:08;;;;;;;22.98;5.95;;;;;;;;;;5282092;27;20036;-70
2022/11/10 02:07:33;;;;;;;;;;;;;;;;;;5285345;27;20001;-70
2022/11/10 02:10:00;;;;;;;33.80;6.20;;;;;;;;;;5264526;27;19932;-70
2022/11/10 02:12:36;;;;;;;31.25;6.95;;;;;;;;;;5285088;27;20087;-69
2022/11/10 02:15:03;;;;;;;39.10;7.18;;;;;;;;;;5283628;27;20023;-70
2022/11/10 02:17:28;;;;;;;31.62;5.93;;;;;;;;;;5282183;27;20314;-69
2022/11/10 02:19:53;;;;;;;;;;;;;;;;;;5282930;27;20001;-70
2022/11/10 02:22:19;;;;;;;27.48;5.65;;;;;;;;;;5263122;27;19958;-71
2022/11/10 02:24:44;;;;;;;;;;;;;;;;;;5262718;27;20093;-70
2022/11/10 02:27:09;;;;;;;18.33;4.35;;;;;;;;;;5264972;27;19935;-69
2022/11/10 02:29:34;;;;;;;;;;;;;;;;;;5283526;27;20101;-70
2022/11/10 02:31:59;;;;;;;29.33;5.55;;;;;;;;;;5264650;27;19935;-69
2022/11/10 02:34:24;;;;;;;;;;;;;;;;;;5285038;27;20105;-70
2022/11/10 02:36:49;;;;;;;;;;;;;;;;;;5284824;27;19928;-70
2022/11/10 02:39:14;;;;;;;;;;;;;;;;;;5263030;27;19983;-71
2022/11/10 02:41:40;;;;;;;;;;;;;;;;;;5282925;27;19975;-71
2022/11/10 02:44:05;;;;;;;;;;;;;;;;;;5282844;27;20235;-69
2022/11/10 02:46:30;;;;;;;;;;;;;;;;;;5282470;27;19929;-69
2022/11/10 02:48:55;;;;;;;;;;;;;;;;;;5282241;27;19932;-70
2022/11/10 02:51:20;;;;;;;;;;;;;;;;;;5282446;27;19928;-70
2022/11/10 02:53:45;;;;;;;;;;;;;;;;;;5282880;27;19968;-69
2022/11/10 02:56:10;;;;;;;;;;;;;;;;;;5283264;27;19947;-69
2022/11/10 02:58:35;;;;;;;;;;;;;;;;;;5284659;27;20346;-70
2022/11/10 03:01:01;;;;;;;;;;;;;;;;;;5282500;27;19960;-69
2022/11/10 03:03:26;;;;;;;;;;;;;;;;;;5283108;27;19963;-69
2022/11/10 03:05:51;;;;;;;;;;;;;;;;;;5284281;27;19943;-69
2022/11/10 03:08:16;;;;;;;;;;;;;;;;;;5282255;27;19932;-68
2022/11/10 03:10:41;;;;;;;;;;;;;;;;;;5284385;27;19936;-69
2022/11/10 03:13:06;;;;;;;;;;;;;;;;;;5283620;27;19985;-69
2022/11/10 03:15:32;;;;;;;;;;;;;;;;;;5282967;27;19936;-69
2022/11/10 03:17:57;;;;;;;;;;;;;;;;;;5282796;27;19941;-68
2022/11/10 03:20:22;;;;;;;;;;;;;;;;;;5282445;27;19969;-69
2022/11/10 03:22:47;;;;;;;;;;;;;;;;;;5284413;27;19976;-69
2022/11/10 03:25:12;;;;;;;;;;;;;;;;;;5280436;27;19935;-69
2022/11/10 03:27:37;;;;;;;;;;;;;;;;;;5283091;27;20370;-69
2022/11/10 03:30:02;;;;;;;;;;;;;;;;;;5280572;27;19928;-70
2022/11/10 03:32:27;;;;;;;;;;;;;;;;;;5281642;27;19947;-69
2022/11/10 03:34:53;;;;;;;;;;;;;;;;;;5283631;27;20271;-69
2022/11/10 03:37:18;;;;;;;;;;;;;;;;;;5281945;27;19928;-69
2022/11/10 03:39:43;;;;;;;;;;;;;;;;;;5281551;27;19929;-69
2022/11/10 03:42:08;;;;;;;;;;;;;;;;;;5281984;27;20311;-70
2022/11/10 03:44:33;;;;;;;;;;;;;;;;;;5280131;27;19955;-69
2022/11/10 03:46:58;;;;;;;;;;;;;;;;;;5281964;27;19935;-69
2022/11/10 03:49:23;;;;;;;;;;;;;;;;;;5281497;27;19942;-70
2022/11/10 03:51:48;;;;;;;;;;;;;;;;;;5282787;27;19928;-69
2022/11/10 03:54:13;;;;;;;;;;;;;;;;;;5281653;27;19928;-69
2022/11/10 03:56:38;;;;;;;;;;;;;;;;;;5282118;27;19939;-69
2022/11/10 03:59:04;;;;;;;;;;;;;;;;;;5283290;27;19932;-70
2022/11/10 04:01:29;;;;;;;;;;;;;;;;;;5282301;27;19951;-68
2022/11/10 04:03:55;;;;;;;;;;;;;;;;;;5280386;27;19939;-69
2022/11/10 04:09:04;;;;;;;;;;;;;;;;;;5284182;27;19927;-69
2022/11/10 04:16:57;;;;;;;;;;;;;;;;;;5284255;27;19919;-70
2022/11/10 04:19:22;;;;;;;;;;;;;;;;;;5284322;27;19944;-70
2022/11/10 04:21:47;;;;;;;;;;;;;;;;;;5283986;27;19971;-70
2022/11/10 04:24:12;;;;;;;;;;;;;;;;;;5284731;27;19939;-69
2022/11/10 04:26:39;;;;;;;;;;;;;;;;;;5280233;27;19956;-70
2022/11/10 04:29:04;;;;;;;;;;;;;;;;;;5284016;27;19932;-70
2022/11/10 04:31:29;;;;;;;;;;;;;;;;;;5281676;27;20343;-69
2022/11/10 04:33:54;;;;;;;;;;;;;;;;;;5281621;27;20215;-70
2022/11/10 04:36:19;;;;;;;;;;;;;;;;;;5284027;27;20230;-69
2022/11/10 04:38:44;;;;;;;;;;;;;;;;;;5281978;27;19951;-69
2022/11/10 04:41:10;;;;;;;;;;;;;;;;;;5283927;27;19933;-69
2022/11/10 04:43:35;;;;;;;;;;;;;;;;;;5280868;27;19928;-70
2022/11/10 04:46:00;;;;;;;;;;;;;;;;;;5282931;27;19928;-70
2022/11/10 04:48:25;;;;;;;;;;;;;;;;;;5284274;27;19939;-69
2022/11/10 04:50:50;;;;;;;;;;;;;;;;;;5281747;27;19935;-70
2022/11/10 04:53:15;;;;;;;;;;;;;;;;;;5283086;27;19960;-70
2022/11/10 04:55:40;;;;;;;;;;;;;;;;;;5280314;27;19939;-70
2022/11/10 04:58:05;;;;;;;;;;;;;;;;;;5281633;27;20271;-72
2022/11/10 05:00:30;;;;;;;;;;;;;;;;;;5282274;27;20265;-69
2022/11/10 05:02:56;;;;;;;;;;;;;;;;;;5284418;27;20337;-69
2022/11/10 05:05:21;;;;;;;;;;;;;;;;;;5283973;27;19925;-70
2022/11/10 05:07:46;;;;;;;;;;;;;;;;;;5283932;27;19928;-69
2022/11/10 05:10:11;;;;;;;;;;;;;;;;;;5282933;27;19929;-70
2022/11/10 05:12:36;;;;;;;;;;;;;;;;;;5282242;27;19975;-72
2022/11/10 05:15:01;;;;;;;;;;;;;;;;;;5280151;27;19929;-68
2022/11/10 05:17:26;;;;;;;;;;;;;;;;;;5283444;27;19966;-70
2022/11/10 05:19:52;;;;;;;;;;;;;;;;;;5281481;27;19935;-70
2022/11/10 05:22:17;;;;;;;;;;;;;;;;;;5280551;27;19929;-70
2022/11/10 05:24:42;;;;;;;;;;;;;;;;;;5283820;27;19935;-69
2022/11/10 05:27:07;;;;;;;;;;;;;;;;;;5282621;27;19947;-69
2022/11/10 05:29:32;;;;;;;;;;;;;;;;;;5279959;27;19959;-69
2022/11/10 05:31:57;;;;;;;;;;;;;;;;;;5284341;27;20242;-69
2022/11/10 05:34:22;;;;;;;;;;;;;;;;;;5282949;27;19932;-69
2022/11/10 05:36:47;;;;;;;;;;;;;;;;;;5284205;27;19947;-70
2022/11/10 05:39:12;;;;;;;;;;;;;;;;;;5282589;27;19943;-69
2022/11/10 05:41:37;;;;;;;;;;;;;;;;;;5283843;27;19928;-69
2022/11/10 05:44:02;;;;;;;;;;;;;;;;;;5284492;27;19974;-70
2022/11/10 05:46:28;;;;;;;;;;;;;;;;;;5282653;27;20248;-69
2022/11/10 05:48:53;;;;;;;;;;;;;;;;;;5282061;27;19929;-70
2022/11/10 05:51:18;;;;;;;;;;;;;;;;;;5284448;27;19933;-69
2022/11/10 05:53:43;;;;;;;;;;;;;;;;;;5282211;27;19959;-70
2022/11/10 05:56:08;;;;;;;;;;;;;;;;;;5284230;27;19929;-70
2022/11/10 05:58:33;;;;;;;;;;;;;;;;;;5282680;27;19939;-68
2022/11/10 06:00:58;;;;;;;;;;;;;;;;;;5283621;27;19928;-73
2022/11/10 06:03:23;;;;;;;;;;;;;;;;;;5285604;27;20226;-73
2022/11/10 06:05:48;;;;;;;;;;;;;;;;;;5285294;27;19928;-73
2022/11/10 06:08:13;;;;;;;;;;;;;;;;;;5281199;27;19932;-73
2022/11/10 06:10:39;;;;;;;;;;;;;;;;;;5283465;27;19936;-73
2022/11/10 06:13:04;;;;;;;;;;;;;;;;;;5281479;27;19924;-72
2022/11/10 06:15:29;;;;;;;;;;;;;;;;;;5285050;27;19928;-73
2022/11/10 06:17:54;;;;;;;;;;;;;;;;;;5283039;27;19936;-73
2022/11/10 06:20:19;;;;;;;;;;;;;;;;;;5283471;27;19929;-73
2022/11/10 06:22:45;;;;;;;;;;;;;;;;;;5285467;27;19936;-72
2022/11/10 06:25:10;;;;;;;;;;;;;;;;;;5282836;27;20255;-74
2022/11/10 06:27:35;;;;;;;;;;;;;;;;;;5282528;27;19959;-72
2022/11/10 06:30:00;;;;;;;;;;;;;;;;;;5283350;27;19932;-74
2022/11/10 06:32:26;;;;;;;;;;;;;;;;;;5283126;27;19939;-71
2022/11/10 06:34:51;;;;;;;;;;;;;;;;;;5283335;27;20047;-72
2022/11/10 06:37:16;;;;;;;;;;;;;;;;;;5283214;27;19964;-71
2022/11/10 06:39:41;;;;;;;;;;;;;;;;;;5282239;27;20298;-73
2022/11/10 06:42:06;;;;;;;;;;;;;;;;;;5282103;27;19952;-71
2022/11/10 06:44:31;;;;;;;;;;;;;;;;;;5284416;27;19932;-72
2022/11/10 06:46:56;;;;;;;;;;;;;;;;;;5283019;27;19990;-71
2022/11/10 06:49:21;;;;;;;;;;;;;;;;;;5284622;27;19932;-72
2022/11/10 06:51:46;;;;;;;;;;;;;;;;;;5283259;27;20349;-72
2022/11/10 06:54:11;;;;;;;;;;;;;;;;;;5284627;27;19944;-74
2022/11/10 06:56:36;;;;;;;;;;;;;;;;;;5282921;27;20302;-74
2022/11/10 06:59:02;;;;;;;;;;;;;;;;;;5283874;27;20305;-73
2022/11/10 07:01:27;;;;;;;;;;;;;;;;;;5284264;27;19938;-74
2022/11/10 07:03:52;;;;;;;;;;;;;;;;;;5280881;27;19928;-74
2022/11/10 07:06:17;;;;;;;;;;;;;;;;;;5281964;27;20295;-74
2022/11/10 07:08:42;;;;;;;;;;;;;;;;;;5280517;27;19932;-75
2022/11/10 07:11:07;;;;;;;;;;;;;;;;;;5283799;27;20283;-72
2022/11/10 07:13:32;;;;;;;;;;;;;;;;;;5281916;27;19951;-72
2022/11/10 07:15:57;;;;;;;;;;;;;;;;;;5283637;27;19947;-71
2022/11/10 07:18:22;;;;;;;;;;;;;;;;;;5281382;27;19975;-71
2022/11/10 07:20:48;;;;;;;;;;;;;;;;;;5282054;27;19928;-72
2022/11/10 07:23:13;;;;;;;;;;;;;;;;;;5282457;27;19955;-73
2022/11/10 07:25:38;;;;;;;;;;;;;;;;;;5280039;27;19972;-72
2022/11/10 07:28:03;;;;;;;;;;;;;;;;;;5280198;27;19967;-72
2022/11/10 07:30:28;;;;;;;;;;;;;;;;;;5284353;27;19939;-71
2022/11/10 07:32:53;;;;;;;;;;;;;;;;;;5281977;27;19938;-75
2022/11/10 07:35:18;;;;;;;;;;;;;;;;;;5284665;27;20054;-72
2022/11/10 07:37:43;;;;;;;;;;;;;;;;;;5282866;27;19958;-75
2022/11/10 07:40:08;;;;;;;;;;;;;;;;;;5281603;27;19928;-71
2022/11/10 07:42:33;;;;;;;;;;;;;;;;;;5284247;27;19958;-73
2022/11/10 07:44:58;;;;;;;;;;;;;;;;;;5283807;27;19940;-73
2022/11/10 07:47:24;;;;;;;;;;;;;;;;;;5282883;27;19975;-71
2022/11/10 07:49:49;;;;;;;;;;;;;;;;;;5281923;27;20242;-70
2022/11/10 07:52:14;;;;;;;;;;;;;;;;;;5281802;27;19925;-72
2022/11/10 07:54:39;;;;;;;;;;;;;;;;;;5283900;27;19955;-69
2022/11/10 07:57:04;;;;;;;;;;;;;;;;;;5279821;27;19962;-73
2022/11/10 07:59:29;;;;;;;;;;;;;;;;;;5280380;27;19998;-72
2022/11/10 08:01:54;;;;;;;;;;;;;;;;;;5283728;27;20047;-75
2022/11/10 08:04:19;;;;;;;;;;;;;;;;;;5281924;27;19929;-70
2022/11/10 08:06:44;;;;;;;;;;;;;;;;;;5281597;27;19950;-70
2022/11/10 08:09:09;;;;;;;;;;;;;;;;;;5281212;27;19932;-71
2022/11/10 08:11:34;;;;;;;;;;;;;;;;;;5282154;27;19928;-71
2022/11/10 08:14:00;;;;;;;;;;;;;;;;;;5279477;27;19944;-70
2022/11/10 08:16:25;;;;;;;;;;;;;;;;;;5279839;27;19940;-70
2022/11/10 08:18:50;;;;;;;;;;;;;;;;;;5281502;27;19934;-69
2022/11/10 08:21:15;;;;;;;;;;;;;;;;;;5281581;27;20264;-72
2022/11/10 08:23:40;;;;;;;;;;;;;;;;;;5281749;27;19967;-69
2022/11/10 08:26:05;;;;;;;;;;;;;;;;;;5281902;27;19929;-69
2022/11/10 08:28:31;;;;;;;;;;;;;;;;;;5282901;27;19931;-70
2022/11/10 08:30:56;;;;;;;;;;;;;;;;;;5282955;27;19985;-70
2022/11/10 08:33:21;;;;;;;;;;;;;;;;;;5282121;27;20298;-71
2022/11/10 08:35:46;;;;;;;;;;;;;;;;;;5282961;27;19978;-69
2022/11/10 08:38:11;;;;;;;;;;;;;;;;;;5282233;27;19935;-72
2022/11/10 08:40:36;;;;;;;;;;;;;;;;;;5282938;27;19928;-71
2022/11/10 08:43:02;;;;;;;;;;;;;;;;;;5281401;27;19939;-71
2022/11/10 08:45:27;;;;;;;;;;;;;;;;;;5283343;27;19928;-72
2022/11/10 08:47:52;;;;;;;;;;;;;;;;;;5282558;27;19947;-69
2022/11/10 08:50:17;;;;;;;;;;;;;;;;;;5280952;27;19966;-72
2022/11/10 08:52:42;;;;;;;;;;;;;;;;;;5284155;27;20032;-71
2022/11/10 08:55:07;;;;;;;;;;;;;;;;;;5281984;27;19959;-73
2022/11/10 08:57:32;;;;;;;;;;;;;;;;;;5283881;27;19929;-73
2022/11/10 08:59:57;;;;;;;;;;;;;;;;;;5282096;27;20276;-70
2022/11/10 09:02:22;;;;;;;;;;;;;;;;;;5282826;27;19929;-71
2022/11/10 09:04:47;;;;;;;;;;;;;;;;;;5284780;27;19928;-69
2022/11/10 09:07:12;;;;;;;;;;;;;;;;;;5284196;27;20289;-70
2022/11/10 09:09:38;;;;;;;;;;;;;;;;;;5283536;27;20303;-72
2022/11/10 09:12:03;;;;;;;;;;;;;;;;;;5283241;27;19924;-71
2022/11/10 09:14:28;;;;;;;;;;;;;;;;;;5283449;27;20274;-71
2022/11/10 09:16:53;;;;;;;;;;;;;;;;;;5283495;27;19928;-71
2022/11/10 09:19:18;;;;;;;;;;;;;;;;;;5283017;27;19939;-70
2022/11/10 09:21:43;;;;;;;;;;;;;;;;;;5283245;27;20257;-71
2022/11/10 09:24:08;;;;;;;;;;;;;;;;;;5284653;27;19961;-74
2022/11/10 09:26:33;;;;;;;;;;;;;;;;;;5283831;27;19929;-70
2022/11/10 09:28:58;;;;;;;;;;;;;;;;;;5285580;27;19932;-71
2022/11/10 09:31:23;;;;;;;;;;;;;;;;;;5282901;27;19947;-71
2022/11/10 09:33:49;;;;;;;;;;;;;;;;;;5283296;27;19929;-74
2022/11/10 09:36:14;;;;;;;;;;;;;;;;;;5282876;27;19995;-72
2022/11/10 09:38:39;;;;;;;;;;;;;;;;;;5283000;27;19939;-74
2022/11/10 09:41:04;;;;;;;;;;;;;;;;;;5283225;27;19932;-71
2022/11/10 09:43:29;;;;;;;;;;;;;;;;;;5282818;27;19929;-72
2022/11/10 09:45:54;;;;;;;;;;;;;;;;;;5283783;27;19940;-70
2022/11/10 09:48:19;;;;;;;;;;;;;;;;;;5282717;27;19932;-71
2022/11/10 09:50:44;;;;;;;;;;;;;;;;;;5285423;27;19932;-72
2022/11/10 09:53:10;;;;;;;;;;;;;;;;;;5282735;27;19954;-73
2022/11/10 09:55:35;;;;;;;;;;;;;;;;;;5282607;27;19928;-71
2022/11/10 09:58:00;;;;;;;;;;;;;;;;;;5284914;27;19928;-74
2022/11/10 10:00:25;;;;;;;;;;;;;;;;;;5284639;27;20005;-71
2022/11/10 10:02:50;;;;;;;;;;;;;;;;;;5282635;27;19944;-71
2022/11/10 10:05:15;;;;;;;;;;;;;;;;;;5282820;27;19962;-73
2022/11/10 10:07:40;;;;;;;;;;;;;;;;;;5283592;27;19948;-70
2022/11/10 10:10:05;;;;;;;;;;;;;;;;;;5282946;27;19929;-70
2022/11/10 10:12:30;;;;;;;;;;;;;;;;;;5284569;27;19984;-70
2022/11/10 10:14:55;;;;;;;;;;;;;;;;;;5284025;27;20306;-71
2022/11/10 10:17:21;;;;;;;;;;;;;;;;;;5284849;27;19989;-71
2022/11/10 10:19:46;;;;;;;;;;;;;;;;;;5285071;27;19968;-73
2022/11/10 10:22:11;;;;;;;;;;;;;;;;;;5283730;27;19924;-70
2022/11/10 10:24:37;;;;;;;;;;;;;;;;;;5284783;27;19928;-72
2022/11/10 10:27:02;;;;;;;;;;;;;;;;;;5283299;27;19928;-74
2022/11/10 10:29:27;;;;;;;;;;;;;;;;;;5282961;27;19964;-72
2022/11/10 10:31:52;;;;;;;;;;;;;;;;;;5282887;27;20305;-71
2022/11/10 10:34:17;;;;;;;;;;;;;;;;;;5282596;27;19994;-71
2022/11/10 10:36:43;;;;;;;;;;;;;;;;;;5282994;27;20322;-71
2022/11/10 10:39:08;;;;;;;;;;;;;;;;;;5282255;27;19933;-71
2022/11/10 10:41:33;;;;;;;;;;;;;;;;;;5283359;27;19975;-75
2022/11/10 10:43:58;;;;;;;;;;;;;;;;;;5282407;27;19952;-71
2022/11/10 10:46:27;;;;;;;;;;;;;;;;;;5285167;27;19928;-71
2022/11/10 10:48:52;;;;;;;;;;;;;;;;;;5281858;27;19940;-72
2022/11/10 10:51:18;;;;;;;;;;;;;;;;;;5282681;27;19958;-72
2022/11/10 10:53:43;;;;;;;;;;;;;;;;;;5284330;27;19958;-69
2022/11/10 10:56:08;;;;;;;;;;;;;;;;;;5282857;27;19928;-73
2022/11/10 10:58:33;;;;;;;;;;;;;;;;;;5282312;27;19935;-70
2022/11/10 11:00:58;;;;;;;;;;;;;;;;;;5282984;27;19932;-72
2022/11/10 11:03:23;;;;;;;;;;;;;;;;;;5284751;27;19932;-71
2022/11/10 11:05:48;;;;;;;;;;;;;;;;;;5284182;27;19958;-74
2022/11/10 11:08:13;;;;;;;;;;;;;;;;;;5280947;27;19929;-72
2022/11/10 11:10:38;;;;;;;;;;;;;;;;;;5280645;27;20284;-72
2022/11/10 11:13:03;;;;;;;;;;;;;;;;;;5279034;27;19928;-71
2022/11/10 11:15:29;;;;;;;;;;;;;;;;;;5279146;27;19924;-73
2022/11/10 11:17:54;;;;;;;;;;;;;;;;;;5283182;27;19928;-70
2022/11/10 11:20:19;;;;;;;;;;;;;;;;;;5282475;27;19985;-74
2022/11/10 11:22:45;;;;;;;;;;;;;;;;;;5282359;27;19928;-71
2022/11/10 11:25:10;;;;;;;;;;;;;;;;;;5283177;27;19945;-70
2022/11/10 11:27:35;;;;;;;;;;;;;;;;;;5280889;27;19975;-70
2022/11/10 11:30:01;;;;;;;;;;;;;;;;;;5280999;27;19946;-71
2022/11/10 11:32:26;;;;;;;;;;;;;;;;;;5283051;27;19991;-69
2022/11/10 11:34:51;;;;;;;;;;;;;;;;;;5281082;27;19941;-70
2022/11/10 11:37:16;;;;;;;;;;;;;;;;;;5280901;27;19960;-71
2022/11/10 11:39:41;;;;;;;;;;;;;;;;;;5280738;27;19939;-72
2022/11/10 11:42:07;;;;;;;;;;;;;;;;;;5280182;27;19960;-73
2022/11/10 11:44:32;;;;;;;;;;;;;;;;;;5281403;27;20262;-71
2022/11/10 11:46:57;;;;;;;;;;;;;;;;;;5280330;27;19924;-71
2022/11/10 11:49:22;;;;;;;;;;;;;;;;;;5282085;27;19944;-69
2022/11/10 11:51:47;;;;;;;;;;;;;;;;;;5281197;27;20053;-74
2022/11/10 11:54:12;;;;;;;;;;;;;;;;;;5280927;27;20011;-69
2022/11/10 11:56:37;;;;;;;;;;;;;;;;;;5281791;27;20380;-68
2022/11/10 11:59:02;;;;;;;;;;;;;;;;;;5282761;27;20028;-70
2022/11/10 12:01:28;;;;;;;;;;;;;;;;;;5281441;27;19932;-71
2022/11/10 12:03:53;;;;;;;;;;;;;;;;;;5281120;27;19925;-69
2022/11/10 12:06:18;;;;;;;;;;;;;;;;;;5280351;27;19948;-69
2022/11/10 12:08:43;;;;;;;;;;;;;;;;;;5278642;27;19943;-72
2022/11/10 12:11:08;;;;;;;;;;;;;;;;;;5283580;27;19940;-72
2022/11/10 12:13:33;;;;;;;;;;;;;;;;;;5281240;27;19970;-71
2022/11/10 12:15:58;;;;;;;;;;;;;;;;;;5281836;27;19948;-72
2022/11/10 12:18:24;;;;;;;;;;;;;;;;;;5283553;27;19976;-70
2022/11/10 12:20:49;;;;;;;;;;;;;;;;;;5283301;27;19939;-72
2022/11/10 12:23:14;;;;;;;;;;;;;;;;;;5284086;27;19928;-72
2022/11/10 12:25:39;;;;;;;;;;;;;;;;;;5281701;27;19999;-71
2022/11/10 12:28:04;;;;;;;;;;;;;;;;;;5283824;27;20291;-70
2022/11/10 12:30:29;;;;;;;;;;;;;;;;;;5284189;27;19962;-73
2022/11/10 12:32:54;;;;;;;;;;;;;;;;;;5284238;27;19928;-73
2022/11/10 12:35:19;;;;;;;;;;;;;;;;;;5281784;27;19964;-71
2022/11/10 12:37:44;;;;;;;;;;;;;;;;;;5281801;27;20251;-69
2022/11/10 12:40:10;;;;;;;;;;;;;;;;;;5281609;27;19928;-71
2022/11/10 12:42:35;;;;;;;;;;;;;;;;;;5283338;27;19932;-71
2022/11/10 12:45:00;;;;;;;;;;;;;;;;;;5284910;27;19932;-71
2022/11/10 12:47:25;;;;;;;;;;;;;;;;;;5281831;27;19929;-73
2022/11/10 12:49:50;;;;;;;;;;;;;;;;;;5285691;27;20262;-73
2022/11/10 12:52:15;;;;;;;;;;;;;;;;;;5285114;27;19928;-71
2022/11/10 12:54:40;;;;;;;;;;;;;;;;;;5284059;27;20024;-74
2022/11/10 12:57:05;;;;;;;;;;;;;;;;;;5284345;27;19929;-70
2022/11/10 12:59:30;;;;;;;;;;;;;;;;;;5284802;27;19942;-71
2022/11/10 13:01:55;;;;;;;;;;;;;;;;;;5283098;27;19936;-73
2022/11/10 13:04:21;;;;;;;;;;;;;;;;;;5285600;27;19928;-68
2022/11/10 13:06:46;;;;;;;;;;;;;;;;;;5284676;27;19929;-70
2022/11/10 13:09:11;;;;;;;;;;;;;;;;;;5282393;27;20261;-73
2022/11/10 13:11:36;;;;;;;;;;;;;;;;;;5283930;27;19928;-73
2022/11/10 13:14:01;;;;;;;;;;;;;;;;;;5285455;27;19928;-68
2022/11/10 13:16:26;;;;;;;;;;;;;;;;;;5283691;27;19940;-68
2022/11/10 13:18:51;;;;;;;;;;;;;;;;;;5283774;27;19928;-68
2022/11/10 13:21:17;;;;;;;;;;;;;;;;;;5285366;27;19996;-68
2022/11/10 13:23:42;;;;;;;;;;;;;;;;;;5284250;27;19962;-68
2022/11/10 13:26:07;;;;;;;;;;;;;;;;;;5281791;27;19959;-68
2022/11/10 13:28:32;;;;;;;;;;;;;;;;;;5282482;27;19932;-68
2022/11/10 13:30:57;;;;;;;;;;;;;;;;;;5285638;27;20003;-69
2022/11/10 13:33:22;;;;;;;;;;;;;;;;;;5281224;27;19962;-68
2022/11/10 13:35:47;;;;;;;;;;;;;;;;;;5284316;27;19929;-69
2022/11/10 13:38:12;;;;;;;;;;;;;;;;;;5283143;27;19979;-69
2022/11/10 13:40:38;;;;;;;;;;;;;;;;;;5283307;27;19928;-68
2022/11/10 13:43:03;;;;;;;;;;;;;;;;;;5283240;27;19925;-68
2022/11/10 13:45:28;;;;;;;;;;;;;;;;;;5280656;27;19958;-67
2022/11/10 13:47:53;;;;;;;;;;;;;;;;;;5282745;27;20220;-68
2022/11/10 13:50:18;;;;;;;;;;;;;;;;;;5282518;27;19944;-68
2022/11/10 13:52:44;;;;;;;;;;;;;;;;;;5283834;27;19939;-68
2022/11/10 13:55:09;;;;;;;;;;;;;;;;;;5284520;27;19976;-68
2022/11/10 13:57:34;;;;;;;;;;;;;;;;;;5283363;27;19928;-68
2022/11/10 13:59:59;;;;;;;;;;;;;;;;;;5283227;27;19924;-69
2022/11/10 14:02:24;;;;;;;;;;;;;;;;;;5284837;27;19935;-68
2022/11/10 14:04:49;;;;;;;;;;;;;;;;;;5282675;27;19983;-69
2022/11/10 14:07:15;;;;;;;;;;;;;;;;;;5284693;27;19928;-69
2022/11/10 14:09:40;;;;;;;;;;;;;;;;;;5280715;27;19976;-68
2022/11/10 14:12:05;;;;;;;;;;;;;;;;;;5283498;27;19928;-70
2022/11/10 14:14:30;;;;;;;;;;;;;;;;;;5279245;27;19928;-69
2022/11/10 14:16:55;;;;;;;;;;;;;;;;;;5280830;27;19929;-69
2022/11/10 14:19:20;;;;;;;;;;;;;;;;;;5280763;27;20310;-68
2022/11/10 14:21:45;;;;;;;;;;;;;;;;;;5279452;27;19929;-69
2022/11/10 14:24:10;;;;;;;;;;;;;;;;;;5281151;27;19929;-69
2022/11/10 14:26:36;;;;;;;;;;;;;;;;;;5279063;27;20302;-68
2022/11/10 14:29:01;;;;;;;;;;;;;;;;;;5281621;27;19946;-68
2022/11/10 14:31:27;;;;;;;;;;;;;;;;;;5282381;27;19959;-67
2022/11/10 14:33:52;;;;;;;;;;;;;;;;;;5279976;27;19940;-68
2022/11/10 14:36:17;;;;;;;;;;;;;;;;;;5279244;27;19997;-68
2022/11/10 14:38:42;;;;;;;;;;;;;;;;;;5282516;27;19932;-69
2022/11/10 14:41:07;;;;;;;;;;;;;;;;;;5281340;27;19972;-67
2022/11/10 14:43:32;;;;;;;;;;;;;;;;;;5279818;27;19947;-68
2022/11/10 14:45:57;;;;;;;;;;;;;;;;;;5282880;27;19935;-68
2022/11/10 14:48:22;;;;;;;;;;;;;;;;;;5281131;27;20007;-68
2022/11/10 14:50:47;;;;;;;;;;;;;;;;;;5281186;27;20299;-68
2022/11/10 14:53:13;;;;;;;;;;;;;;;;;;5282443;27;19929;-67
2022/11/10 14:55:38;;;;;;;;;;;;;;;;;;5282666;27;19929;-69
2022/11/10 14:58:03;;;;;;;;;;;;;;;;;;5283551;27;19928;-68
2022/11/10 15:00:28;;;;;;;;;;;;;;;;;;5281837;27;19952;-68
2022/11/10 15:02:53;;;;;;;;;;;;;;;;;;5281344;27;19958;-69
2022/11/10 15:05:18;;;;;;;;;;;;;;;;;;5283535;27;19928;-68
2022/11/10 15:07:43;;;;;;;;;;;;;;;;;;5281129;27;19935;-68
2022/11/10 15:10:09;;;;;;;;;;;;;;;;;;5283521;27;19940;-68
2022/11/10 15:12:34;;;;;;;;;;;;;;;;;;5282948;27;19929;-68
2022/11/10 15:14:59;;;;;;;;;;;;;;;;;;5280760;27;19935;-68
2022/11/10 15:17:24;;;;;;;;;;;;;;;;;;5282938;27;20301;-68
2022/11/10 15:19:49;;;;;;;;;;;;;;;;;;5284116;27;19929;-69
2022/11/10 15:22:14;;;;;;;;;;;;;;;;;;5280311;27;19941;-68
2022/11/10 15:24:39;;;;;;;;;;;;;;;;;;5282737;27;20302;-68
2022/11/10 15:27:04;;;;;;;;;;;;;;;;;;5283405;27;19962;-69
2022/11/10 15:29:29;;;;;;;;;;;;;;;;;;5281390;27;19951;-69
2022/11/10 15:31:55;;;;;;;;;;;;;;;;;;5279523;27;20243;-68
2022/11/10 15:34:20;;;;;;;;;;;;;;;;;;5283601;27;20234;-68
2022/11/10 15:36:45;;;;;;;;;;;;;;;;;;5282876;27;19928;-69
2022/11/10 15:39:10;;;;;;;;;;;;;;;;;;5281131;27;19950;-68
2022/11/10 15:41:35;;;;;;;;;;;;;;;;;;5282896;27;19924;-69
2022/11/10 15:44:00;;;;;;;;;;;;;;;;;;5281418;27;19928;-69
2022/11/10 15:46:25;;;;;;;;;;;;;;;;;;5282923;27;19928;-69
2022/11/10 15:48:51;;;;;;;;;;;;;;;;;;5282606;27;19939;-68
2022/11/10 15:51:16;;;;;;;;;;;;;;;;;;5283977;27;19932;-68
2022/11/10 15:53:41;;;;;;;;;;;;;;;;;;5282107;27;19944;-69
2022/11/10 15:56:06;;;;;;;;;;;;;;;;;;5281938;27;19964;-69
2022/11/10 15:58:31;;;;;;;;;;;;;;;;;;5280827;27;19944;-69
2022/11/10 16:00:56;;;;;;;;;;;;;;;;;;5279349;27;19970;-68
2022/11/10 16:03:22;;;;;;;;;;;;;;;;;;5280848;27;19978;-70
2022/11/10 16:05:47;;;;;;;;;;;;;;;;;;5280971;27;20328;-67
2022/11/10 16:08:12;;;;;;;;;;;;;;;;;;5282086;27;19948;-69
2022/11/10 16:10:37;;;;;;;;;;;;;;;;;;5281871;27;19941;-68
2022/11/10 16:13:02;;;;;;;;;;;;;;;;;;5280906;27;19928;-69
2022/11/10 16:15:28;;;;;;;;;;;;;;;;;;5279836;27;19975;-70
2022/11/10 16:17:53;;;;;;;;;;;;;;;;;;5279545;27;19928;-68
2022/11/10 16:20:18;;;;;;;;;;;;;;;;;;5280880;27;19983;-68
2022/11/10 16:22:43;;;;;;;;;;;;;;;;;;5280806;27;19951;-73
2022/11/10 16:25:08;;;;;;;;;;;;;;;;;;5280336;27;19943;-72